• Join FlightAware (Why Join?)
  • Login
  • US Flag 
07:28AM EDT


 

Airport Tracker/Info


-or-


 

Live Flight TrackerFlight Track Log ✈ RPA3228 ✈ 12-Nov-2013 ✈ KBNA - KDCA

Flight Track Log - Related Links

Times and Time Zones

All times are in EST time to prevent confusion due to time zone crossing. See the RPA3228 flight status page for this flight to view local times or setup timezone preferences in your user account.

Time Position Orientation Groundspeed Altitude Reporting Facility
EST Latitude Longitude Course Direction KTS MPH feet Rate Location/Type
07:09AM 36.1333 -86.6500 56° Northeast 123 142 1,400  Level Nashville TRACON
07:09AM 36.1333 -86.6500 56° Northeast 131 151 1,700 2,400 Climbing Nashville TRACON
07:10AM 36.1667 -86.6000 50° Northeast 203 234 4,100 2,460 Climbing Nashville TRACON
07:11AM 36.1942 -86.5656 45° Northeast 213 245 5,900 2,760 Climbing Memphis Center
07:12AM 36.2766 -86.2205 64° Northeast  Level Estimated
07:12AM 36.2008 -86.4639 85° East 291 335 8,900  Level Memphis Center
07:13AM 36.3143 -86.1058 50° Northeast  Level Estimated
07:13AM 36.2008 -86.3503 90° East 324 373 12,000  Level Memphis Center
07:14AM 36.3520 -85.9910 56° Northeast  Level Estimated
07:14AM 36.2006 -86.2231 90° East 359 413 14,800  Level Memphis Center
07:15AM 36.2017 -86.0889 89° East 382 440 17,400 2,340 Climbing Memphis Center
07:16AM 36.2500 -85.9619 65° Northeast 398 458 19,600 2,220 Climbing Memphis Center
07:17AM 36.3050 -85.8353 62° Northeast 411 473 21,900 2,100 Climbing Memphis Center
07:18AM 36.3653 -85.7056 60° Northeast 431 496 23,800 1,860 Climbing Indianapolis Center
07:19AM 36.4306 -85.5700 59° Northeast 452 520 25,700 1,680 Climbing Indianapolis Center
07:20AM 36.4969 -85.4297 59° Northeast 464 534 27,300 1,560 Climbing Indianapolis Center
07:21AM 36.5658 -85.2839 60° Northeast 482 555 28,900 1,320 Climbing Indianapolis Center
07:22AM 36.6292 -85.1303 63° Northeast 494 568 30,100 1,140 Climbing Indianapolis Center
07:23AM 36.6814 -84.9628 69° East 512 589 31,300 1,200 Climbing Indianapolis Center
07:24AM 36.7317 -84.7922 70° East 519 597 32,600 1,260 Climbing Indianapolis Center
07:25AM 36.7947 -84.5883 69° East 524 603 33,900 1,140 Climbing Indianapolis Center
07:26AM 36.8411 -84.4328 70° East 524 603 35,000 540 Climbing Indianapolis Center
07:27AM 36.8914 -84.2658 69° East 512 589 35,000  Level Indianapolis Center
07:28AM 36.9411 -84.0981 70° East 515 593 35,000  Level Indianapolis Center
07:29AM 36.9928 -83.9258 69° East 527 606 35,000  Level Indianapolis Center
07:30AM 37.0458 -83.7544 69° East 528 608 35,000  Level Indianapolis Center
07:31AM 37.1039 -83.5514 70° East 531 611 35,000  Level Indianapolis Center
07:32AM 37.1544 -83.3772 70° East 532 612 35,000  Level Indianapolis Center
07:33AM 37.2056 -83.2019 70° East 533 613 35,000  Level Indianapolis Center
07:34AM 37.2558 -83.0281 70° East 530 610 35,000  Level Indianapolis Center
07:35AM 37.3053 -82.8517 71° East 530 610 35,000  Level Indianapolis Center
07:36AM 37.3553 -82.6756 70° East 534 615 35,000  Level Indianapolis Center
07:37AM 37.4042 -82.5011 71° East 529 609 35,000  Level Indianapolis Center
07:38AM 37.4547 -82.3261 70° East 529 609 35,000  Level Indianapolis Center
07:39AM 37.5031 -82.1508 71° East 528 608 35,000  Level Indianapolis Center
07:40AM 37.5514 -81.9747 71° East 531 611 35,000  Level Indianapolis Center
07:41AM 37.5997 -81.8008 71° East 526 605 35,000  Level Indianapolis Center
07:42AM 37.6464 -81.6244 71° East 527 606 35,000  Level Indianapolis Center
07:43AM 37.7003 -81.4250 71° East 527 606 35,000  Level Indianapolis Center
07:44AM 37.7456 -81.2536 71° East 528 608 35,000  Level Indianapolis Center
07:45AM 37.7931 -81.0861 70° East 523 602 35,000  Level Indianapolis Center
07:46AM 37.8533 -80.9167 66° East 523 602 35,000  Level Indianapolis Center
07:47AM 37.9122 -80.7494 66° East 522 601 35,000 -300 Level Indianapolis Center
07:48AM 37.9719 -80.5811 66° East 523 602 34,400 -960 Descending Indianapolis Center
07:49AM 38.0394 -80.3958 65° Northeast 528 608 33,100 -1,260 Descending Washington Center
07:50AM 38.0983 -80.2281 66° East 528 608 32,000 -1,080 Descending Washington Center
07:51AM 38.1542 -80.0731 65° Northeast 528 608 31,000 -540 Descending Washington Center
07:52AM 38.2125 -79.9047 66° East 528 608 31,000  Level Washington Center
07:53AM 38.2728 -79.7361 65° Northeast 528 608 31,000  Level Washington Center
07:54AM 38.3325 -79.5700 65° Northeast 528 608 31,000  Level Washington Center
07:55AM 38.3903 -79.4011 66° East 523 602 31,000 -1,140 Level Washington Center
07:56AM 38.4400 -79.2047 72° East 523 602 28,800 -2,040 Descending Washington Center
07:57AM 38.4722 -79.0286 77° East 517 595 27,000 -1,440 Descending Washington Center
07:58AM 38.5003 -78.8522 78° East 507 583 25,900 -1,800 Descending Washington Center
07:59AM 38.5256 -78.6833 79° East 502 578 23,500 -1,980 Descending Washington Center
08:00AM 38.5503 -78.5253 79° East 477 549 22,000 -1,260 Descending Washington Center
08:01AM 38.5769 -78.3722 77° East 452 520 21,000 -1,560 Descending Washington Center
08:02AM 38.6217 -78.2303 68° East 430 495 19,000 -1,920 Descending Washington Center
08:03AM 38.6747 -78.0939 63° Northeast 430 495 17,200 -2,040 Descending Washington Center
08:04AM 38.7233 -77.9625 65° Northeast 419 482 15,000 -2,040 Descending Washington Center
08:05AM 38.7717 -77.8336 64° Northeast 403 464 13,100 -1,860 Descending Washington Center
08:06AM 38.8089 -77.7283 66° East 380 437 11,400 -1,620 Descending Washington Center
08:07AM 38.8569 -77.6042 64° Northeast 348 400 9,900 -1,500 Descending Washington Center
08:08AM 38.8833 -77.5500 58° Northeast 325 374 9,100 -1,320 Descending Potomac TRACON
08:09AM 38.9000 -77.4500 78° East 313 360 8,100 -1,380 Descending Potomac TRACON
08:10AM 38.8667 -77.3667 117° Southeast 305 351 6,700 -1,260 Descending Potomac TRACON
08:11AM 38.8333 -77.2833 117° Southeast 292 336 5,900 -1,080 Descending Potomac TRACON
08:12AM 38.8000 -77.2000 117° Southeast 286 329 4,800 -1,020 Descending Potomac TRACON
08:13AM 38.7667 -77.1167 117° Southeast 253 291 4,000 -1,200 Descending Potomac TRACON
08:14AM 38.7333 -77.0500 123° Southeast 189 217 2,500 -1,320 Descending Potomac TRACON
08:15AM 38.7667 -77.0333 21° North 124 143 1,400 -840 Descending Potomac TRACON
08:16AM 38.8000 -77.0167 21° North 119 137 900 -600 Descending Potomac TRACON
08:17AM 38.8333 -77.0167 360° North 118 136 300 -600 Descending Potomac TRACON
08:19AM 38.8500 -77.0333 North  Level FlightAware Approximate